Flight Track Log - Related Links

Times and Time Zones

All times are in EDT time to prevent confusion due to time zone crossing. See the AAL2007 flight status page for this flight to view local times or setup timezone preferences in your user account.


Time Position Orientation Groundspeed Altitude Reporting Facility
EDT Latitude Longitude Course Direction KTS MPH feet Rate Location/Type
Sun 06:13:03 PM 41.9500 -87.9000 207° Southwest 164 189 1,700  Level Chicago TRACON
Sun 06:14:03 PM 41.9000 -87.9333 206° Southwest 211 243 3,700 1,929 Climbing Chicago TRACON
Sun 06:14:27 PM 41.8736 -87.9403 191° South 215 247 4,400 2,721 Climbing Chicago Center
Sun 06:15:00 PM 41.7158 -88.1728 201° Southwest  Level Estimated
Sun 06:15:29 PM 41.8072 -87.9778 203° Southwest 247 284 7,600  Level Chicago Center
Sun 06:16:00 PM 41.6270 -88.2610 197° South  Level Estimated
Sun 06:16:31 PM 41.7369 -88.0181 203° Southwest 273 314 10,700  Level Chicago Center
Sun 06:17:00 PM 41.5255 -88.2027 157° South  Level FlightAware Approximate
Sun 06:17:33 PM 41.6644 -88.0550 201° Southwest 279 321 13,800  Level Chicago Center
Sun 06:18:00 PM 41.4372 -88.2915 207° Southwest  Level Estimated
Sun 06:18:34 PM 41.5706 -88.1003 200° South 300 345 16,300  Level Chicago Center
Sun 06:19:36 PM 41.4889 -88.1386 199° South 315 362 18,500 1,935 Climbing Chicago Center
Sun 06:20:38 PM 41.4033 -88.1822 201° Southwest 347 399 20,300 1,839 Climbing Chicago Center
Sun 06:21:40 PM 41.3131 -88.2222 198° South 351 404 22,300 1,935 Climbing Chicago Center
Sun 06:22:42 PM 41.1978 -88.2778 200° South 371 427 24,300 1,500 Climbing Chicago Center
Sun 06:23:44 PM 41.0961 -88.3208 198° South 384 442 25,400 1,258 Climbing Chicago Center
Sun 06:24:46 PM 40.9892 -88.3697 199° South 403 464 26,900 1,161 Climbing Chicago Center
Sun 06:25:48 PM 40.8792 -88.4203 199° South 416 479 27,800 1,122 Climbing Chicago Center
Sun 06:26:49 PM 40.7728 -88.4919 207° Southwest 454 522 29,200 1,610 Climbing Chicago Center
Sun 06:27:51 PM 40.6725 -88.6153 223° Southwest 415 478 31,100 1,355 Climbing Chicago Center
Sun 06:28:53 PM 40.5825 -88.7075 218° Southwest 411 473 32,000 484 Climbing Chicago Center
Sun 06:29:55 PM 40.4919 -88.8025 219° Southwest 416 479 32,100 532 Climbing Chicago Center
Sun 06:30:57 PM 40.3989 -88.9033 220° Southwest 412 474 33,100 871 Climbing Chicago Center
Sun 06:31:59 PM 40.3078 -88.9972 218° Southwest 413 475 33,900 432 Climbing Chicago Center
Sun 06:33:02 PM 40.2186 -89.0914 219° Southwest 410 472 34,000 48 Climbing Chicago Center
Sun 06:34:04 PM 40.1278 -89.1869 219° Southwest 415 478 34,000  Level Chicago Center
Sun 06:35:06 PM 40.0386 -89.2808 219° Southwest 411 473 34,000  Level Chicago Center
Sun 06:36:00 PM 39.9464 -89.3744 218° Southwest 413 475 34,000  Level Kansas City Center
Sun 06:37:02 PM 39.8558 -89.4694 219° Southwest 415 478 34,000  Level Kansas City Center
Sun 06:38:03 PM 39.7650 -89.5636 219° Southwest 416 479 34,000  Level Kansas City Center
Sun 06:39:06 PM 39.6781 -89.6531 218° Southwest 413 475 34,000  Level Kansas City Center
Sun 06:40:10 PM 39.5697 -89.7631 218° Southwest 413 475 34,000  Level Kansas City Center
Sun 06:41:10 PM 39.4808 -89.8547 219° Southwest 410 472 34,000  Level Kansas City Center
Sun 06:42:24 PM 39.3900 -89.9461 218° Southwest 412 474 34,000  Level Kansas City Center
Sun 06:43:26 PM 39.2806 -90.0581 218° Southwest 417 480 34,000  Level Kansas City Center
Sun 06:44:31 PM 39.1908 -90.1500 218° Southwest 415 478 34,000  Level Kansas City Center
Sun 06:45:32 PM 39.1000 -90.2425 218° Southwest 416 479 34,000  Level Kansas City Center
Sun 06:46:33 PM 38.9908 -90.3522 218° Southwest 417 480 34,000  Level Kansas City Center
Sun 06:47:36 PM 38.9114 -90.4325 218° Southwest 414 476 34,000  Level Kansas City Center
Sun 06:48:37 PM 38.8028 -90.5458 219° Southwest 415 478 34,000  Level Kansas City Center
Sun 06:49:40 PM 38.7167 -90.6478 223° Southwest 417 480 34,000  Level Kansas City Center
Sun 06:50:41 PM 38.6208 -90.7433 218° Southwest 417 480 34,000  Level Kansas City Center
Sun 06:51:42 PM 38.5289 -90.8353 218° Southwest 423 487 34,000  Level Kansas City Center
Sun 06:52:46 PM 38.4369 -90.9258 218° Southwest 419 482 34,000  Level Kansas City Center
Sun 06:53:48 PM 38.3450 -91.0181 218° Southwest 423 487 34,000  Level Kansas City Center
Sun 06:54:49 PM 38.2522 -91.1108 218° Southwest 424 488 34,000  Level Kansas City Center
Sun 06:55:50 PM 38.1392 -91.2175 217° Southwest 421 484 34,000  Level Kansas City Center
Sun 06:56:52 PM 38.0503 -91.3097 219° Southwest 417 480 34,000  Level Kansas City Center
Sun 06:57:56 PM 37.9556 -91.4014 217° Southwest 418 481 34,000  Level Kansas City Center
Sun 06:58:57 PM 37.8614 -91.4933 218° Southwest 423 487 34,000  Level Kansas City Center
Sun 06:59:58 PM 37.7683 -91.5833 217° Southwest 421 484 34,000  Level Kansas City Center
Sun 07:01:02 PM 37.6761 -91.6736 218° Southwest 417 480 34,000  Level Kansas City Center
Sun 07:02:03 PM 37.5836 -91.7639 218° Southwest 417 480 34,000  Level Kansas City Center
Sun 07:03:06 PM 37.4917 -91.8533 218° Southwest 415 478 34,000  Level Kansas City Center
Sun 07:04:08 PM 37.3803 -91.9600 217° Southwest 416 479 34,000  Level Kansas City Center
Sun 07:05:09 PM 37.2867 -92.0508 218° Southwest 420 483 34,000  Level Kansas City Center
Sun 07:06:12 PM 37.1942 -92.1406 218° Southwest 419 482 34,000  Level Kansas City Center
Sun 07:07:13 PM 37.0986 -92.2297 217° Southwest 421 484 34,000  Level Kansas City Center
Sun 07:08:17 PM 37.0028 -92.3233 218° Southwest 429 494 34,000  Level Kansas City Center
Sun 07:09:18 PM 36.9094 -92.4139 218° Southwest 426 490 34,000  Level Kansas City Center
Sun 07:09:46 PM 36.8517 -92.4675 217° Southwest 437 503 34,000  Level Memphis Center
Sun 07:10:46 PM 36.7583 -92.5531 216° Southwest 437 503 34,000  Level Memphis Center
Sun 07:11:46 PM 36.6653 -92.6383 216° Southwest 432 497 34,000  Level Memphis Center
Sun 07:12:46 PM 36.5739 -92.7264 218° Southwest 432 497 34,000  Level Memphis Center
Sun 07:13:46 PM 36.4806 -92.8139 217° Southwest 427 491 34,000  Level Memphis Center
Sun 07:14:46 PM 36.3850 -92.8986 216° Southwest 427 491 34,000  Level Memphis Center
Sun 07:15:46 PM 36.2936 -92.9861 218° Southwest 427 491 34,000  Level Memphis Center
Sun 07:16:46 PM 36.2022 -93.0731 218° Southwest 427 491 34,000  Level Memphis Center
Sun 07:17:46 PM 36.1086 -93.1572 216° Southwest 422 486 34,000  Level Memphis Center
Sun 07:18:46 PM 36.0150 -93.2389 215° Southwest 422 486 34,000  Level Memphis Center
Sun 07:19:46 PM 35.9233 -93.3253 217° Southwest 422 486 34,000  Level Memphis Center
Sun 07:20:46 PM 35.8314 -93.4092 216° Southwest 422 486 34,000  Level Memphis Center
Sun 07:21:46 PM 35.7397 -93.4900 216° Southwest 417 480 34,000  Level Memphis Center
Sun 07:22:46 PM 35.6567 -93.5661 217° Southwest 417 480 34,000  Level Memphis Center
Sun 07:23:46 PM 35.5667 -93.6494 217° Southwest 417 480 34,000  Level Memphis Center
Sun 07:24:46 PM 35.4769 -93.7300 216° Southwest 417 480 34,000  Level Memphis Center
Sun 07:25:46 PM 35.3850 -93.8131 216° Southwest 417 480 34,000  Level Memphis Center
Sun 07:26:46 PM 35.2953 -93.8931 216° Southwest 417 480 34,000  Level Memphis Center
Sun 07:28:43 PM 35.1092 -94.0586 216° Southwest 417 480 34,000  Level Fort Worth Center
Sun 07:29:43 PM 35.0194 -94.1381 216° Southwest 412 474 34,000  Level Fort Worth Center
Sun 07:30:43 PM 34.9319 -94.2225 218° Southwest 406 467 34,000  Level Fort Worth Center
Sun 07:31:43 PM 34.8442 -94.2992 216° Southwest 396 456 34,000  Level Fort Worth Center
Sun 07:32:43 PM 34.7564 -94.3756 216° Southwest 396 456 34,000  Level Fort Worth Center
Sun 07:33:43 PM 34.6664 -94.4519 215° Southwest 401 461 34,000  Level Fort Worth Center
Sun 07:34:43 PM 34.5786 -94.5333 217° Southwest 401 461 34,000  Level Fort Worth Center
Sun 07:35:43 PM 34.4906 -94.6092 215° Southwest 401 461 34,000  Level Fort Worth Center
Sun 07:36:43 PM 34.4003 -94.6853 215° Southwest 401 461 34,000  Level Fort Worth Center
Sun 07:37:43 PM 34.3103 -94.7661 217° Southwest 401 461 34,000  Level Fort Worth Center
Sun 07:38:43 PM 34.2222 -94.8414 215° Southwest 401 461 34,000  Level Fort Worth Center
Sun 07:39:43 PM 34.1319 -94.9194 216° Southwest 401 461 34,000  Level Fort Worth Center
Sun 07:40:43 PM 34.0417 -94.9972 216° Southwest 401 461 34,000  Level Fort Worth Center
Sun 07:41:43 PM 33.9533 -95.0722 215° Southwest 401 461 34,000  Level Fort Worth Center
Sun 07:42:43 PM 33.8628 -95.1472 215° Southwest 401 461 34,000  Level Fort Worth Center
Sun 07:43:43 PM 33.7744 -95.2244 216° Southwest 401 461 34,000  Level Fort Worth Center
Sun 07:44:43 PM 33.6861 -95.3042 217° Southwest 401 461 34,000  Level Fort Worth Center
Sun 07:45:43 PM 33.5975 -95.3761 214° Southwest 401 461 34,000  Level Fort Worth Center
Sun 07:46:43 PM 33.5069 -95.4553 216° Southwest 401 461 34,000  Level Fort Worth Center
Sun 07:47:43 PM 33.4142 -95.5297 214° Southwest 406 467 34,000  Level Fort Worth Center
Sun 07:48:43 PM 33.3358 -95.5983 216° Southwest 406 467 34,000  Level Fort Worth Center
Sun 07:49:43 PM 33.2453 -95.6747 215° Southwest 399 459 34,000  Level Fort Worth Center
Sun 07:50:43 PM 33.1522 -95.7511 215° Southwest 404 465 34,000  Level Fort Worth Center
Sun 07:51:43 PM 33.0592 -95.8269 214° Southwest 404 465 34,000  Level Fort Worth Center
Sun 07:52:43 PM 32.9622 -95.9106 216° Southwest 404 465 34,000  Level Fort Worth Center
Sun 07:53:43 PM 32.8692 -95.9864 214° Southwest 404 465 34,000  Level Fort Worth Center
Sun 07:54:43 PM 32.7781 -96.0644 216° Southwest 404 465 34,000  Level Fort Worth Center
Sun 07:55:43 PM 32.6872 -96.1397 215° Southwest 404 465 34,000  Level Fort Worth Center
Sun 07:56:43 PM 32.5939 -96.2175 215° Southwest 409 471 34,000 -550 Level Fort Worth Center
Sun 07:57:43 PM 32.5028 -96.2900 214° Southwest 409 471 32,900 -1,550 Descending Fort Worth Center
Sun 07:58:43 PM 32.4072 -96.3675 214° Southwest 416 479 30,900 -1,850 Descending Fort Worth Center
Sun 07:59:43 PM 32.3222 -96.4375 215° Southwest 423 487 29,200 -1,850 Descending Fort Worth Center
Sun 08:00:43 PM 32.2186 -96.5147 212° Southwest 429 494 27,200 -2,000 Descending Fort Worth Center
Sun 08:01:43 PM 32.1147 -96.5867 210° Southwest 437 503 25,200 -1,600 Descending Fort Worth Center
Sun 08:02:43 PM 32.0147 -96.6539 210° Southwest 434 499 24,000 -650 Descending Fort Worth Center
Sun 08:03:43 PM 31.9192 -96.7231 212° Southwest 420 483 23,900 -750 Descending Fort Worth Center
Sun 08:04:43 PM 31.8214 -96.7900 210° Southwest 407 468 22,500 -1,550 Descending Fort Worth Center
Sun 08:05:43 PM 31.7278 -96.8564 211° Southwest 399 459 20,800 -1,250 Descending Fort Worth Center
Sun 08:06:43 PM 31.6300 -96.9206 209° Southwest 399 459 20,000 -369 Descending Fort Worth Center
Sun 08:07:53 PM 31.5181 -96.9981 211° Southwest 393 452 20,000 -864 Level Houston Center
Sun 08:08:55 PM 31.4192 -97.0644 210° Southwest 403 464 18,100 -1,805 Descending Houston Center
Sun 08:09:56 PM 31.3231 -97.1308 211° Southwest 400 460 16,300 -1,024 Descending Houston Center
Sun 08:10:58 PM 31.2297 -97.1947 210° Southwest 388 447 16,000 -145 Descending Houston Center
Sun 08:12:00 PM 31.1103 -97.2472 201° Southwest 394 453 16,000  Level Houston Center
Sun 08:13:02 PM 31.0075 -97.2878 199° South 390 449 16,000 -1,113 Level Houston Center
Sun 08:14:04 PM 30.9078 -97.3264 198° South 393 452 13,700 -2,129 Descending Houston Center
Sun 08:15:06 PM 30.8111 -97.3650 199° South 373 429 11,600 -1,548 Descending Houston Center
Sun 08:16:08 PM 30.7333 -97.4186 211° Southwest 328 377 10,500 -1,122 Descending Houston Center
Sun 08:17:09 PM 30.6536 -97.4747 211° Southwest 295 339 9,300 -1,415 Descending Houston Center
Sun 08:18:11 PM 30.5919 -97.5181 211° Southwest 264 304 7,600 -1,597 Descending Houston Center
Sun 08:19:13 PM 30.5283 -97.5617 211° Southwest 263 303 6,000 -1,694 Descending Houston Center
Sun 08:20:15 PM 30.4675 -97.6039 211° Southwest 254 292 4,100 -1,161 Descending Houston Center
Sun 08:21:17 PM 30.4061 -97.6375 205° Southwest 244 281 3,600 -290 Descending Houston Center
Sun 08:22:19 PM 30.3522 -97.6631 202° Southwest 215 247 3,500 -97 Descending Houston Center

Login

Don't have an account? Register now (free) for customized features, flight alerts, and more!